<?xml version="1.0" encoding="UTF-8" standalone="no" ?>
<gpx xmlns="http://www.topografix.com/GPX/1/1" xmlns:xsi="http://www.w3.org/2001/XMLSchema-instance" xsi:schemaLocation="http://www.topografix.com/GPX/1/1 http://www.topografix.com/GPX/1/1/gpx.xsd" version="1.1" creator="VisuGPX - https://www.visugpx.com">
  <metadata>
    <name>VTT-Montarcher</name>
  </metadata>
  <trk>
    <name><![CDATA[14473535-chevaux valide]]></name>
    <extensions>
      <line xmlns="http://www.topografix.com/GPX/gpx_style/0/2">
        <color>0000FF</color>
        <opacity>0.65</opacity>
        <width>9</width>
        <dasharray>27</dasharray>
          <extensions>
            <sens>1</sens>
          </extensions>
      </line>
    </extensions>
    <trkseg>
      <trkpt lat="45.45958" lon="3.9957">
        <ele>1135</ele>
        <time>2022-05-17T10:35:00Z</time>
      </trkpt>
      <trkpt lat="45.45962" lon="3.99562">
        <ele>1134</ele>
        <time>2022-05-17T10:35:06Z</time>
      </trkpt>
      <trkpt lat="45.45949" lon="3.99554">
        <ele>1136</ele>
        <time>2022-05-17T10:35:17Z</time>
      </trkpt>
      <trkpt lat="45.45946" lon="3.99524">
        <ele>1136</ele>
        <time>2022-05-17T10:35:34Z</time>
      </trkpt>
      <trkpt lat="45.45936" lon="3.99491">
        <ele>1137</ele>
        <time>2022-05-17T10:35:54Z</time>
      </trkpt>
      <trkpt lat="45.45922" lon="3.9947">
        <ele>1138</ele>
        <time>2022-05-17T10:36:10Z</time>
      </trkpt>
      <trkpt lat="45.45898" lon="3.9946">
        <ele>1137</ele>
        <time>2022-05-17T10:36:30Z</time>
      </trkpt>
      <trkpt lat="45.45888" lon="3.99452">
        <ele>1136</ele>
        <time>2022-05-17T10:36:40Z</time>
      </trkpt>
      <trkpt lat="45.45872" lon="3.99445">
        <ele>1135</ele>
        <time>2022-05-17T10:36:53Z</time>
      </trkpt>
      <trkpt lat="45.45859" lon="3.99444">
        <ele>1135</ele>
        <time>2022-05-17T10:37:03Z</time>
      </trkpt>
      <trkpt lat="45.45848" lon="3.99453">
        <ele>1135</ele>
        <time>2022-05-17T10:37:14Z</time>
      </trkpt>
      <trkpt lat="45.45841" lon="3.99461">
        <ele>1136</ele>
        <time>2022-05-17T10:37:21Z</time>
      </trkpt>
      <trkpt lat="45.4583" lon="3.99475">
        <ele>1136</ele>
        <time>2022-05-17T10:37:33Z</time>
      </trkpt>
      <trkpt lat="45.4583" lon="3.99483">
        <ele>1137</ele>
        <time>2022-05-17T10:37:37Z</time>
      </trkpt>
      <trkpt lat="45.4584" lon="3.99527">
        <ele>1138</ele>
        <time>2022-05-17T10:38:03Z</time>
      </trkpt>
      <trkpt lat="45.45846" lon="3.99565">
        <ele>1136</ele>
        <time>2022-05-17T10:38:25Z</time>
      </trkpt>
      <trkpt lat="45.45893" lon="3.99563">
        <ele>1139</ele>
        <time>2022-05-17T10:39:02Z</time>
      </trkpt>
      <trkpt lat="45.45941" lon="3.9959">
        <ele>1137</ele>
        <time>2022-05-17T10:39:44Z</time>
      </trkpt>
      <trkpt lat="45.45869" lon="3.99603">
        <ele>1134</ele>
        <time>2022-05-17T10:40:42Z</time>
      </trkpt>
      <trkpt lat="45.4582" lon="3.99573">
        <ele>1131</ele>
        <time>2022-05-17T10:41:25Z</time>
      </trkpt>
      <trkpt lat="45.45798" lon="3.99529">
        <ele>1128</ele>
        <time>2022-05-17T10:41:55Z</time>
      </trkpt>
      <trkpt lat="45.45777" lon="3.99498">
        <ele>1125</ele>
        <time>2022-05-17T10:42:19Z</time>
      </trkpt>
      <trkpt lat="45.45766" lon="3.99473">
        <ele>1121</ele>
        <time>2022-05-17T10:42:36Z</time>
      </trkpt>
      <trkpt lat="45.45756" lon="3.99457">
        <ele>1118</ele>
        <time>2022-05-17T10:42:48Z</time>
      </trkpt>
      <trkpt lat="45.4575" lon="3.99436">
        <ele>1116</ele>
        <time>2022-05-17T10:43:01Z</time>
      </trkpt>
      <trkpt lat="45.45747" lon="3.99406">
        <ele>1113</ele>
        <time>2022-05-17T10:43:18Z</time>
      </trkpt>
      <trkpt lat="45.457" lon="3.99447">
        <ele>1101</ele>
        <time>2022-05-17T10:44:02Z</time>
      </trkpt>
      <trkpt lat="45.45722" lon="3.99578">
        <ele>1104</ele>
        <time>2022-05-17T10:45:17Z</time>
      </trkpt>
      <trkpt lat="45.45746" lon="3.9962">
        <ele>1106</ele>
        <time>2022-05-17T10:45:48Z</time>
      </trkpt>
      <trkpt lat="45.45775" lon="3.99651">
        <ele>1110</ele>
        <time>2022-05-17T10:46:17Z</time>
      </trkpt>
      <trkpt lat="45.45821" lon="3.99766">
        <ele>1101</ele>
        <time>2022-05-17T10:47:31Z</time>
      </trkpt>
      <trkpt lat="45.45867" lon="3.99832">
        <ele>1098</ele>
        <time>2022-05-17T10:48:23Z</time>
      </trkpt>
      <trkpt lat="45.45962" lon="3.99817">
        <ele>1113</ele>
        <time>2022-05-17T10:49:40Z</time>
      </trkpt>
      <trkpt lat="45.4599" lon="3.9987">
        <ele>1110</ele>
        <time>2022-05-17T10:50:17Z</time>
      </trkpt>
      <trkpt lat="45.46006" lon="3.99925">
        <ele>1104</ele>
        <time>2022-05-17T10:50:51Z</time>
      </trkpt>
      <trkpt lat="45.46027" lon="3.99965">
        <ele>1101</ele>
        <time>2022-05-17T10:51:19Z</time>
      </trkpt>
      <trkpt lat="45.46062" lon="4.00016">
        <ele>1101</ele>
        <time>2022-05-17T10:51:59Z</time>
      </trkpt>
      <trkpt lat="45.46071" lon="4.00058">
        <ele>1097</ele>
        <time>2022-05-17T10:52:23Z</time>
      </trkpt>
      <trkpt lat="45.46083" lon="4.00137">
        <ele>1090</ele>
        <time>2022-05-17T10:53:09Z</time>
      </trkpt>
      <trkpt lat="45.4607" lon="4.00182">
        <ele>1083</ele>
        <time>2022-05-17T10:53:36Z</time>
      </trkpt>
      <trkpt lat="45.4608" lon="4.00248">
        <ele>1081</ele>
        <time>2022-05-17T10:54:14Z</time>
      </trkpt>
      <trkpt lat="45.46067" lon="4.00296">
        <ele>1076</ele>
        <time>2022-05-17T10:54:43Z</time>
      </trkpt>
      <trkpt lat="45.46082" lon="4.00355">
        <ele>1076</ele>
        <time>2022-05-17T10:55:18Z</time>
      </trkpt>
      <trkpt lat="45.46085" lon="4.00433">
        <ele>1073</ele>
        <time>2022-05-17T10:56:02Z</time>
      </trkpt>
      <trkpt lat="45.46075" lon="4.00473">
        <ele>1070</ele>
        <time>2022-05-17T10:56:26Z</time>
      </trkpt>
      <trkpt lat="45.46076" lon="4.00527">
        <ele>1071</ele>
        <time>2022-05-17T10:56:56Z</time>
      </trkpt>
      <trkpt lat="45.46048" lon="4.00575">
        <ele>1072</ele>
        <time>2022-05-17T10:57:31Z</time>
      </trkpt>
      <trkpt lat="45.45982" lon="4.00591">
        <ele>1066</ele>
        <time>2022-05-17T10:58:25Z</time>
      </trkpt>
      <trkpt lat="45.45941" lon="4.00621">
        <ele>1065</ele>
        <time>2022-05-17T10:59:02Z</time>
      </trkpt>
      <trkpt lat="45.45894" lon="4.00676">
        <ele>1069</ele>
        <time>2022-05-17T10:59:50Z</time>
      </trkpt>
      <trkpt lat="45.4585" lon="4.00729">
        <ele>1069</ele>
        <time>2022-05-17T11:00:37Z</time>
      </trkpt>
      <trkpt lat="45.45792" lon="4.00787">
        <ele>1066</ele>
        <time>2022-05-17T11:01:33Z</time>
      </trkpt>
      <trkpt lat="45.45748" lon="4.00852">
        <ele>1068</ele>
        <time>2022-05-17T11:02:24Z</time>
      </trkpt>
      <trkpt lat="45.45685" lon="4.00937">
        <ele>1070</ele>
        <time>2022-05-17T11:03:33Z</time>
      </trkpt>
      <trkpt lat="45.45597" lon="4.01001">
        <ele>1072</ele>
        <time>2022-05-17T11:04:53Z</time>
      </trkpt>
      <trkpt lat="45.45539" lon="4.01032">
        <ele>1075</ele>
        <time>2022-05-17T11:05:42Z</time>
      </trkpt>
      <trkpt lat="45.45467" lon="4.01079">
        <ele>1078</ele>
        <time>2022-05-17T11:06:46Z</time>
      </trkpt>
      <trkpt lat="45.45408" lon="4.01133">
        <ele>1078</ele>
        <time>2022-05-17T11:07:42Z</time>
      </trkpt>
      <trkpt lat="45.45333" lon="4.01082">
        <ele>1075</ele>
        <time>2022-05-17T11:08:48Z</time>
      </trkpt>
      <trkpt lat="45.45231" lon="4.01044">
        <ele>1070</ele>
        <time>2022-05-17T11:10:13Z</time>
      </trkpt>
      <trkpt lat="45.45138" lon="4.01012">
        <ele>1062</ele>
        <time>2022-05-17T11:11:29Z</time>
      </trkpt>
      <trkpt lat="45.4502" lon="4.00938">
        <ele>1056</ele>
        <time>2022-05-17T11:13:13Z</time>
      </trkpt>
      <trkpt lat="45.44866" lon="4.00908">
        <ele>1054</ele>
        <time>2022-05-17T11:15:17Z</time>
      </trkpt>
      <trkpt lat="45.44797" lon="4.0089">
        <ele>1048</ele>
        <time>2022-05-17T11:16:13Z</time>
      </trkpt>
      <trkpt lat="45.44615" lon="4.00882">
        <ele>1024</ele>
        <time>2022-05-17T11:18:39Z</time>
      </trkpt>
      <trkpt lat="45.44576" lon="4.00825">
        <ele>1024</ele>
        <time>2022-05-17T11:19:24Z</time>
      </trkpt>
      <trkpt lat="45.44531" lon="4.00728">
        <ele>1015</ele>
        <time>2022-05-17T11:20:29Z</time>
      </trkpt>
      <trkpt lat="45.44479" lon="4.00664">
        <ele>1008</ele>
        <time>2022-05-17T11:21:24Z</time>
      </trkpt>
      <trkpt lat="45.44473" lon="4.00784">
        <ele>1001</ele>
        <time>2022-05-17T11:22:32Z</time>
      </trkpt>
      <trkpt lat="45.44462" lon="4.00882">
        <ele>993</ele>
        <time>2022-05-17T11:23:27Z</time>
      </trkpt>
      <trkpt lat="45.44461" lon="4.00934">
        <ele>990</ele>
        <time>2022-05-17T11:23:57Z</time>
      </trkpt>
      <trkpt lat="45.44465" lon="4.00979">
        <ele>989</ele>
        <time>2022-05-17T11:24:22Z</time>
      </trkpt>
      <trkpt lat="45.44478" lon="4.01151">
        <ele>992</ele>
        <time>2022-05-17T11:25:59Z</time>
      </trkpt>
      <trkpt lat="45.44438" lon="4.01107">
        <ele>990</ele>
        <time>2022-05-17T11:26:40Z</time>
      </trkpt>
      <trkpt lat="45.44396" lon="4.01112">
        <ele>985</ele>
        <time>2022-05-17T11:27:13Z</time>
      </trkpt>
      <trkpt lat="45.44364" lon="4.01163">
        <ele>977</ele>
        <time>2022-05-17T11:27:52Z</time>
      </trkpt>
      <trkpt lat="45.44332" lon="4.01169">
        <ele>971</ele>
        <time>2022-05-17T11:28:18Z</time>
      </trkpt>
      <trkpt lat="45.44325" lon="4.01216">
        <ele>968</ele>
        <time>2022-05-17T11:28:45Z</time>
      </trkpt>
      <trkpt lat="45.44264" lon="4.01264">
        <ele>960</ele>
        <time>2022-05-17T11:29:40Z</time>
      </trkpt>
      <trkpt lat="45.44164" lon="4.01246">
        <ele>952</ele>
        <time>2022-05-17T11:31:01Z</time>
      </trkpt>
      <trkpt lat="45.44116" lon="4.01253">
        <ele>949</ele>
        <time>2022-05-17T11:31:40Z</time>
      </trkpt>
      <trkpt lat="45.44062" lon="4.01283">
        <ele>953</ele>
        <time>2022-05-17T11:32:26Z</time>
      </trkpt>
      <trkpt lat="45.43997" lon="4.0126">
        <ele>951</ele>
        <time>2022-05-17T11:33:20Z</time>
      </trkpt>
      <trkpt lat="45.43962" lon="4.01321">
        <ele>959</ele>
        <time>2022-05-17T11:34:04Z</time>
      </trkpt>
      <trkpt lat="45.43921" lon="4.01398">
        <ele>964</ele>
        <time>2022-05-17T11:34:58Z</time>
      </trkpt>
      <trkpt lat="45.4389" lon="4.01457">
        <ele>968</ele>
        <time>2022-05-17T11:35:40Z</time>
      </trkpt>
      <trkpt lat="45.43873" lon="4.01536">
        <ele>974</ele>
        <time>2022-05-17T11:36:26Z</time>
      </trkpt>
      <trkpt lat="45.43848" lon="4.01587">
        <ele>977</ele>
        <time>2022-05-17T11:37:01Z</time>
      </trkpt>
      <trkpt lat="45.43832" lon="4.01608">
        <ele>977</ele>
        <time>2022-05-17T11:37:19Z</time>
      </trkpt>
      <trkpt lat="45.4382" lon="4.01697">
        <ele>981</ele>
        <time>2022-05-17T11:38:10Z</time>
      </trkpt>
      <trkpt lat="45.43808" lon="4.01762">
        <ele>983</ele>
        <time>2022-05-17T11:38:47Z</time>
      </trkpt>
      <trkpt lat="45.4378" lon="4.01839">
        <ele>987</ele>
        <time>2022-05-17T11:39:36Z</time>
      </trkpt>
      <trkpt lat="45.43756" lon="4.01911">
        <ele>991</ele>
        <time>2022-05-17T11:40:21Z</time>
      </trkpt>
      <trkpt lat="45.43755" lon="4.01948">
        <ele>992</ele>
        <time>2022-05-17T11:40:42Z</time>
      </trkpt>
      <trkpt lat="45.43742" lon="4.01952">
        <ele>992</ele>
        <time>2022-05-17T11:40:52Z</time>
      </trkpt>
      <trkpt lat="45.43702" lon="4.01932">
        <ele>992</ele>
        <time>2022-05-17T11:41:26Z</time>
      </trkpt>
      <trkpt lat="45.43632" lon="4.01912">
        <ele>992</ele>
        <time>2022-05-17T11:42:23Z</time>
      </trkpt>
      <trkpt lat="45.43549" lon="4.01845">
        <ele>986</ele>
        <time>2022-05-17T11:43:40Z</time>
      </trkpt>
      <trkpt lat="45.43469" lon="4.0178">
        <ele>976</ele>
        <time>2022-05-17T11:44:53Z</time>
      </trkpt>
      <trkpt lat="45.43381" lon="4.01725">
        <ele>970</ele>
        <time>2022-05-17T11:46:10Z</time>
      </trkpt>
      <trkpt lat="45.43315" lon="4.01639">
        <ele>964</ele>
        <time>2022-05-17T11:47:22Z</time>
      </trkpt>
      <trkpt lat="45.4322" lon="4.01604">
        <ele>963</ele>
        <time>2022-05-17T11:48:41Z</time>
      </trkpt>
      <trkpt lat="45.43167" lon="4.01586">
        <ele>960</ele>
        <time>2022-05-17T11:49:24Z</time>
      </trkpt>
      <trkpt lat="45.43177" lon="4.01416">
        <ele>949</ele>
        <time>2022-05-17T11:51:00Z</time>
      </trkpt>
      <trkpt lat="45.43158" lon="4.01303">
        <ele>940</ele>
        <time>2022-05-17T11:52:05Z</time>
      </trkpt>
      <trkpt lat="45.43039" lon="4.01161">
        <ele>938</ele>
        <time>2022-05-17T11:54:10Z</time>
      </trkpt>
      <trkpt lat="45.42927" lon="4.01024">
        <ele>950</ele>
        <time>2022-05-17T11:56:08Z</time>
      </trkpt>
      <trkpt lat="45.4282" lon="4.01228">
        <ele>948</ele>
        <time>2022-05-17T11:58:31Z</time>
      </trkpt>
      <trkpt lat="45.42741" lon="4.01327">
        <ele>945</ele>
        <time>2022-05-17T11:59:55Z</time>
      </trkpt>
      <trkpt lat="45.42694" lon="4.01417">
        <ele>946</ele>
        <time>2022-05-17T12:00:58Z</time>
      </trkpt>
      <trkpt lat="45.42675" lon="4.01458">
        <ele>948</ele>
        <time>2022-05-17T12:01:26Z</time>
      </trkpt>
      <trkpt lat="45.42609" lon="4.01506">
        <ele>950</ele>
        <time>2022-05-17T12:02:25Z</time>
      </trkpt>
      <trkpt lat="45.42556" lon="4.01598">
        <ele>952</ele>
        <time>2022-05-17T12:03:32Z</time>
      </trkpt>
      <trkpt lat="45.42478" lon="4.01671">
        <ele>951</ele>
        <time>2022-05-17T12:04:47Z</time>
      </trkpt>
      <trkpt lat="45.42405" lon="4.01754">
        <ele>945</ele>
        <time>2022-05-17T12:06:01Z</time>
      </trkpt>
      <trkpt lat="45.42319" lon="4.01838">
        <ele>936</ele>
        <time>2022-05-17T12:07:25Z</time>
      </trkpt>
      <trkpt lat="45.42265" lon="4.01924">
        <ele>928</ele>
        <time>2022-05-17T12:08:30Z</time>
      </trkpt>
      <trkpt lat="45.42201" lon="4.02015">
        <ele>920</ele>
        <time>2022-05-17T12:09:42Z</time>
      </trkpt>
      <trkpt lat="45.42136" lon="4.02141">
        <ele>914</ele>
        <time>2022-05-17T12:11:10Z</time>
      </trkpt>
      <trkpt lat="45.42142" lon="4.02199">
        <ele>914</ele>
        <time>2022-05-17T12:11:43Z</time>
      </trkpt>
      <trkpt lat="45.4217" lon="4.02237">
        <ele>917</ele>
        <time>2022-05-17T12:12:14Z</time>
      </trkpt>
      <trkpt lat="45.42194" lon="4.02353">
        <ele>923</ele>
        <time>2022-05-17T12:13:22Z</time>
      </trkpt>
      <trkpt lat="45.42211" lon="4.02395">
        <ele>926</ele>
        <time>2022-05-17T12:13:49Z</time>
      </trkpt>
      <trkpt lat="45.42207" lon="4.02421">
        <ele>926</ele>
        <time>2022-05-17T12:14:04Z</time>
      </trkpt>
      <trkpt lat="45.42242" lon="4.0244">
        <ele>928</ele>
        <time>2022-05-17T12:14:34Z</time>
      </trkpt>
      <trkpt lat="45.42306" lon="4.02454">
        <ele>929</ele>
        <time>2022-05-17T12:15:26Z</time>
      </trkpt>
      <trkpt lat="45.42362" lon="4.02495">
        <ele>932</ele>
        <time>2022-05-17T12:16:16Z</time>
      </trkpt>
      <trkpt lat="45.42439" lon="4.0255">
        <ele>937</ele>
        <time>2022-05-17T12:17:25Z</time>
      </trkpt>
      <trkpt lat="45.42515" lon="4.02602">
        <ele>942</ele>
        <time>2022-05-17T12:18:33Z</time>
      </trkpt>
      <trkpt lat="45.42581" lon="4.0268">
        <ele>938</ele>
        <time>2022-05-17T12:19:42Z</time>
      </trkpt>
      <trkpt lat="45.42658" lon="4.02817">
        <ele>929</ele>
        <time>2022-05-17T12:21:20Z</time>
      </trkpt>
      <trkpt lat="45.42704" lon="4.02911">
        <ele>923</ele>
        <time>2022-05-17T12:22:25Z</time>
      </trkpt>
      <trkpt lat="45.42706" lon="4.02936">
        <ele>923</ele>
        <time>2022-05-17T12:22:39Z</time>
      </trkpt>
      <trkpt lat="45.42733" lon="4.02968">
        <ele>924</ele>
        <time>2022-05-17T12:23:07Z</time>
      </trkpt>
      <trkpt lat="45.42827" lon="4.02995">
        <ele>929</ele>
        <time>2022-05-17T12:24:24Z</time>
      </trkpt>
      <trkpt lat="45.42942" lon="4.03099">
        <ele>930</ele>
        <time>2022-05-17T12:26:13Z</time>
      </trkpt>
      <trkpt lat="45.43054" lon="4.03201">
        <ele>928</ele>
        <time>2022-05-17T12:27:59Z</time>
      </trkpt>
      <trkpt lat="45.43097" lon="4.03252">
        <ele>929</ele>
        <time>2022-05-17T12:28:44Z</time>
      </trkpt>
      <trkpt lat="45.43157" lon="4.03284">
        <ele>931</ele>
        <time>2022-05-17T12:29:35Z</time>
      </trkpt>
      <trkpt lat="45.432" lon="4.03338">
        <ele>936</ele>
        <time>2022-05-17T12:30:21Z</time>
      </trkpt>
      <trkpt lat="45.43248" lon="4.03481">
        <ele>946</ele>
        <time>2022-05-17T12:31:50Z</time>
      </trkpt>
      <trkpt lat="45.43305" lon="4.0355">
        <ele>952</ele>
        <time>2022-05-17T12:32:50Z</time>
      </trkpt>
      <trkpt lat="45.43351" lon="4.03608">
        <ele>954</ele>
        <time>2022-05-17T12:33:39Z</time>
      </trkpt>
      <trkpt lat="45.434" lon="4.03602">
        <ele>954</ele>
        <time>2022-05-17T12:34:19Z</time>
      </trkpt>
      <trkpt lat="45.43473" lon="4.03579">
        <ele>957</ele>
        <time>2022-05-17T12:35:18Z</time>
      </trkpt>
      <trkpt lat="45.43581" lon="4.03536">
        <ele>962</ele>
        <time>2022-05-17T12:36:48Z</time>
      </trkpt>
      <trkpt lat="45.43641" lon="4.03522">
        <ele>962</ele>
        <time>2022-05-17T12:37:37Z</time>
      </trkpt>
      <trkpt lat="45.43664" lon="4.03476">
        <ele>968</ele>
        <time>2022-05-17T12:38:09Z</time>
      </trkpt>
      <trkpt lat="45.43692" lon="4.03451">
        <ele>970</ele>
        <time>2022-05-17T12:38:35Z</time>
      </trkpt>
      <trkpt lat="45.43699" lon="4.03403">
        <ele>973</ele>
        <time>2022-05-17T12:39:03Z</time>
      </trkpt>
      <trkpt lat="45.43695" lon="4.03365">
        <ele>972</ele>
        <time>2022-05-17T12:39:24Z</time>
      </trkpt>
      <trkpt lat="45.43713" lon="4.03299">
        <ele>971</ele>
        <time>2022-05-17T12:40:04Z</time>
      </trkpt>
      <trkpt lat="45.43712" lon="4.03244">
        <ele>971</ele>
        <time>2022-05-17T12:40:35Z</time>
      </trkpt>
      <trkpt lat="45.43836" lon="4.03227">
        <ele>977</ele>
        <time>2022-05-17T12:42:15Z</time>
      </trkpt>
      <trkpt lat="45.43898" lon="4.03229">
        <ele>975</ele>
        <time>2022-05-17T12:43:04Z</time>
      </trkpt>
      <trkpt lat="45.43916" lon="4.03256">
        <ele>975</ele>
        <time>2022-05-17T12:43:25Z</time>
      </trkpt>
      <trkpt lat="45.43958" lon="4.03293">
        <ele>977</ele>
        <time>2022-05-17T12:44:05Z</time>
      </trkpt>
      <trkpt lat="45.43992" lon="4.0334">
        <ele>980</ele>
        <time>2022-05-17T12:44:43Z</time>
      </trkpt>
      <trkpt lat="45.44017" lon="4.03409">
        <ele>984</ele>
        <time>2022-05-17T12:45:26Z</time>
      </trkpt>
      <trkpt lat="45.44008" lon="4.03509">
        <ele>981</ele>
        <time>2022-05-17T12:46:23Z</time>
      </trkpt>
      <trkpt lat="45.44055" lon="4.03589">
        <ele>981</ele>
        <time>2022-05-17T12:47:22Z</time>
      </trkpt>
      <trkpt lat="45.44107" lon="4.037">
        <ele>986</ele>
        <time>2022-05-17T12:48:37Z</time>
      </trkpt>
      <trkpt lat="45.44165" lon="4.03848">
        <ele>990</ele>
        <time>2022-05-17T12:50:12Z</time>
      </trkpt>
      <trkpt lat="45.44239" lon="4.03923">
        <ele>991</ele>
        <time>2022-05-17T12:51:25Z</time>
      </trkpt>
      <trkpt lat="45.4431" lon="4.03976">
        <ele>994</ele>
        <time>2022-05-17T12:52:29Z</time>
      </trkpt>
      <trkpt lat="45.44373" lon="4.04026">
        <ele>991</ele>
        <time>2022-05-17T12:53:26Z</time>
      </trkpt>
      <trkpt lat="45.44483" lon="4.04021">
        <ele>984</ele>
        <time>2022-05-17T12:54:55Z</time>
      </trkpt>
      <trkpt lat="45.44591" lon="4.04021">
        <ele>972</ele>
        <time>2022-05-17T12:56:21Z</time>
      </trkpt>
      <trkpt lat="45.44704" lon="4.03976">
        <ele>976</ele>
        <time>2022-05-17T12:57:55Z</time>
      </trkpt>
      <trkpt lat="45.44793" lon="4.03991">
        <ele>970</ele>
        <time>2022-05-17T12:59:07Z</time>
      </trkpt>
      <trkpt lat="45.44883" lon="4.04004">
        <ele>971</ele>
        <time>2022-05-17T13:00:19Z</time>
      </trkpt>
      <trkpt lat="45.44907" lon="4.03974">
        <ele>975</ele>
        <time>2022-05-17T13:00:45Z</time>
      </trkpt>
      <trkpt lat="45.44913" lon="4.03937">
        <ele>979</ele>
        <time>2022-05-17T13:01:06Z</time>
      </trkpt>
      <trkpt lat="45.44987" lon="4.03909">
        <ele>986</ele>
        <time>2022-05-17T13:02:07Z</time>
      </trkpt>
      <trkpt lat="45.45049" lon="4.03942">
        <ele>986</ele>
        <time>2022-05-17T13:03:00Z</time>
      </trkpt>
      <trkpt lat="45.45103" lon="4.03987">
        <ele>985</ele>
        <time>2022-05-17T13:03:50Z</time>
      </trkpt>
      <trkpt lat="45.45094" lon="4.04047">
        <ele>983</ele>
        <time>2022-05-17T13:04:25Z</time>
      </trkpt>
      <trkpt lat="45.45098" lon="4.04143">
        <ele>983</ele>
        <time>2022-05-17T13:05:19Z</time>
      </trkpt>
      <trkpt lat="45.45207" lon="4.04123">
        <ele>994</ele>
        <time>2022-05-17T13:06:47Z</time>
      </trkpt>
      <trkpt lat="45.45306" lon="4.04127">
        <ele>1006</ele>
        <time>2022-05-17T13:08:06Z</time>
      </trkpt>
      <trkpt lat="45.45329" lon="4.04071">
        <ele>1010</ele>
        <time>2022-05-17T13:08:43Z</time>
      </trkpt>
      <trkpt lat="45.45407" lon="4.03994">
        <ele>1014</ele>
        <time>2022-05-17T13:09:59Z</time>
      </trkpt>
      <trkpt lat="45.4547" lon="4.03979">
        <ele>1018</ele>
        <time>2022-05-17T13:10:50Z</time>
      </trkpt>
      <trkpt lat="45.45536" lon="4.03936">
        <ele>1025</ele>
        <time>2022-05-17T13:11:48Z</time>
      </trkpt>
      <trkpt lat="45.45647" lon="4.0391">
        <ele>1034</ele>
        <time>2022-05-17T13:13:18Z</time>
      </trkpt>
      <trkpt lat="45.45757" lon="4.0388">
        <ele>1041</ele>
        <time>2022-05-17T13:14:48Z</time>
      </trkpt>
      <trkpt lat="45.45783" lon="4.03792">
        <ele>1048</ele>
        <time>2022-05-17T13:15:41Z</time>
      </trkpt>
      <trkpt lat="45.45795" lon="4.03656">
        <ele>1060</ele>
        <time>2022-05-17T13:16:58Z</time>
      </trkpt>
      <trkpt lat="45.45789" lon="4.03528">
        <ele>1072</ele>
        <time>2022-05-17T13:18:10Z</time>
      </trkpt>
      <trkpt lat="45.45797" lon="4.03386">
        <ele>1080</ele>
        <time>2022-05-17T13:19:30Z</time>
      </trkpt>
      <trkpt lat="45.45852" lon="4.03264">
        <ele>1086</ele>
        <time>2022-05-17T13:20:52Z</time>
      </trkpt>
      <trkpt lat="45.45882" lon="4.03094">
        <ele>1091</ele>
        <time>2022-05-17T13:22:30Z</time>
      </trkpt>
      <trkpt lat="45.45896" lon="4.02935">
        <ele>1092</ele>
        <time>2022-05-17T13:24:00Z</time>
      </trkpt>
      <trkpt lat="45.4584" lon="4.02715">
        <ele>1094</ele>
        <time>2022-05-17T13:26:12Z</time>
      </trkpt>
      <trkpt lat="45.45727" lon="4.02686">
        <ele>1098</ele>
        <time>2022-05-17T13:27:44Z</time>
      </trkpt>
      <trkpt lat="45.45567" lon="4.02654">
        <ele>1098</ele>
        <time>2022-05-17T13:29:53Z</time>
      </trkpt>
      <trkpt lat="45.45471" lon="4.02647">
        <ele>1092</ele>
        <time>2022-05-17T13:31:10Z</time>
      </trkpt>
      <trkpt lat="45.45295" lon="4.02732">
        <ele>1080</ele>
        <time>2022-05-17T13:33:39Z</time>
      </trkpt>
      <trkpt lat="45.45203" lon="4.02664">
        <ele>1069</ele>
        <time>2022-05-17T13:35:02Z</time>
      </trkpt>
      <trkpt lat="45.45131" lon="4.02599">
        <ele>1061</ele>
        <time>2022-05-17T13:36:10Z</time>
      </trkpt>
      <trkpt lat="45.45018" lon="4.0265">
        <ele>1050</ele>
        <time>2022-05-17T13:37:45Z</time>
      </trkpt>
      <trkpt lat="45.44946" lon="4.02593">
        <ele>1043</ele>
        <time>2022-05-17T13:38:51Z</time>
      </trkpt>
      <trkpt lat="45.4492" lon="4.02492">
        <ele>1038</ele>
        <time>2022-05-17T13:39:51Z</time>
      </trkpt>
      <trkpt lat="45.44967" lon="4.02409">
        <ele>1032</ele>
        <time>2022-05-17T13:40:51Z</time>
      </trkpt>
      <trkpt lat="45.45191" lon="4.02269">
        <ele>1046</ele>
        <time>2022-05-17T13:44:07Z</time>
      </trkpt>
      <trkpt lat="45.45194" lon="4.02143">
        <ele>1046</ele>
        <time>2022-05-17T13:45:18Z</time>
      </trkpt>
      <trkpt lat="45.4514" lon="4.02084">
        <ele>1042</ele>
        <time>2022-05-17T13:46:12Z</time>
      </trkpt>
      <trkpt lat="45.45178" lon="4.01995">
        <ele>1051</ele>
        <time>2022-05-17T13:47:11Z</time>
      </trkpt>
      <trkpt lat="45.45247" lon="4.02002">
        <ele>1060</ele>
        <time>2022-05-17T13:48:06Z</time>
      </trkpt>
      <trkpt lat="45.45389" lon="4.02119">
        <ele>1081</ele>
        <time>2022-05-17T13:50:17Z</time>
      </trkpt>
      <trkpt lat="45.45496" lon="4.02279">
        <ele>1090</ele>
        <time>2022-05-17T13:52:22Z</time>
      </trkpt>
      <trkpt lat="45.45662" lon="4.02443">
        <ele>1102</ele>
        <time>2022-05-17T13:55:03Z</time>
      </trkpt>
      <trkpt lat="45.45787" lon="4.02546">
        <ele>1102</ele>
        <time>2022-05-17T13:56:59Z</time>
      </trkpt>
      <trkpt lat="45.45838" lon="4.02273">
        <ele>1119</ele>
        <time>2022-05-17T13:59:38Z</time>
      </trkpt>
      <trkpt lat="45.45878" lon="4.02083">
        <ele>1126</ele>
        <time>2022-05-17T14:01:29Z</time>
      </trkpt>
      <trkpt lat="45.45949" lon="4.01912">
        <ele>1131</ele>
        <time>2022-05-17T14:03:21Z</time>
      </trkpt>
      <trkpt lat="45.46029" lon="4.01761">
        <ele>1132</ele>
        <time>2022-05-17T14:05:07Z</time>
      </trkpt>
      <trkpt lat="45.46075" lon="4.01626">
        <ele>1129</ele>
        <time>2022-05-17T14:06:31Z</time>
      </trkpt>
      <trkpt lat="45.46107" lon="4.01603">
        <ele>1126</ele>
        <time>2022-05-17T14:07:00Z</time>
      </trkpt>
      <trkpt lat="45.46182" lon="4.016">
        <ele>1123</ele>
        <time>2022-05-17T14:08:00Z</time>
      </trkpt>
      <trkpt lat="45.46293" lon="4.01507">
        <ele>1130</ele>
        <time>2022-05-17T14:09:43Z</time>
      </trkpt>
      <trkpt lat="45.46415" lon="4.01441">
        <ele>1132</ele>
        <time>2022-05-17T14:11:27Z</time>
      </trkpt>
      <trkpt lat="45.46468" lon="4.01392">
        <ele>1129</ele>
        <time>2022-05-17T14:12:18Z</time>
      </trkpt>
      <trkpt lat="45.46388" lon="4.01229">
        <ele>1134</ele>
        <time>2022-05-17T14:14:10Z</time>
      </trkpt>
      <trkpt lat="45.46329" lon="4.00999">
        <ele>1130</ele>
        <time>2022-05-17T14:16:27Z</time>
      </trkpt>
      <trkpt lat="45.46309" lon="4.00836">
        <ele>1118</ele>
        <time>2022-05-17T14:18:00Z</time>
      </trkpt>
      <trkpt lat="45.46353" lon="4.00748">
        <ele>1122</ele>
        <time>2022-05-17T14:19:01Z</time>
      </trkpt>
      <trkpt lat="45.46367" lon="4.00578">
        <ele>1120</ele>
        <time>2022-05-17T14:20:37Z</time>
      </trkpt>
      <trkpt lat="45.46489" lon="4.0066">
        <ele>1131</ele>
        <time>2022-05-17T14:22:25Z</time>
      </trkpt>
      <trkpt lat="45.46659" lon="4.00635">
        <ele>1145</ele>
        <time>2022-05-17T14:24:42Z</time>
      </trkpt>
      <trkpt lat="45.46754" lon="4.00627">
        <ele>1156</ele>
        <time>2022-05-17T14:25:58Z</time>
      </trkpt>
      <trkpt lat="45.46978" lon="4.00628">
        <ele>1172</ele>
        <time>2022-05-17T14:28:57Z</time>
      </trkpt>
      <trkpt lat="45.47006" lon="4.00775">
        <ele>1168</ele>
        <time>2022-05-17T14:30:23Z</time>
      </trkpt>
      <trkpt lat="45.47036" lon="4.00743">
        <ele>1168</ele>
        <time>2022-05-17T14:30:53Z</time>
      </trkpt>
      <trkpt lat="45.47066" lon="4.00711">
        <ele>1168</ele>
        <time>2022-05-17T14:31:23Z</time>
      </trkpt>
      <trkpt lat="45.47178" lon="4.00589">
        <ele>1170</ele>
        <time>2022-05-17T14:33:16Z</time>
      </trkpt>
      <trkpt lat="45.47252" lon="4.00509">
        <ele>1169</ele>
        <time>2022-05-17T14:34:30Z</time>
      </trkpt>
      <trkpt lat="45.47345" lon="4.00424">
        <ele>1166</ele>
        <time>2022-05-17T14:35:59Z</time>
      </trkpt>
      <trkpt lat="45.47393" lon="4.00392">
        <ele>1167</ele>
        <time>2022-05-17T14:36:41Z</time>
      </trkpt>
      <trkpt lat="45.47437" lon="4.00334">
        <ele>1167</ele>
        <time>2022-05-17T14:37:29Z</time>
      </trkpt>
      <trkpt lat="45.47518" lon="4.00218">
        <ele>1162</ele>
        <time>2022-05-17T14:39:01Z</time>
      </trkpt>
      <trkpt lat="45.47614" lon="4.0013">
        <ele>1161</ele>
        <time>2022-05-17T14:40:32Z</time>
      </trkpt>
      <trkpt lat="45.47741" lon="4.00011">
        <ele>1160</ele>
        <time>2022-05-17T14:42:34Z</time>
      </trkpt>
      <trkpt lat="45.47786" lon="3.99941">
        <ele>1157</ele>
        <time>2022-05-17T14:43:27Z</time>
      </trkpt>
      <trkpt lat="45.47891" lon="3.99713">
        <ele>1151</ele>
        <time>2022-05-17T14:46:00Z</time>
      </trkpt>
      <trkpt lat="45.47917" lon="3.99553">
        <ele>1146</ele>
        <time>2022-05-17T14:47:33Z</time>
      </trkpt>
      <trkpt lat="45.47746" lon="3.993">
        <ele>1138</ele>
        <time>2022-05-17T14:50:50Z</time>
      </trkpt>
      <trkpt lat="45.47629" lon="3.99327">
        <ele>1132</ele>
        <time>2022-05-17T14:52:25Z</time>
      </trkpt>
      <trkpt lat="45.47531" lon="3.99448">
        <ele>1131</ele>
        <time>2022-05-17T14:54:09Z</time>
      </trkpt>
      <trkpt lat="45.47455" lon="3.99416">
        <ele>1125</ele>
        <time>2022-05-17T14:55:12Z</time>
      </trkpt>
      <trkpt lat="45.47422" lon="3.99531">
        <ele>1128</ele>
        <time>2022-05-17T14:56:22Z</time>
      </trkpt>
      <trkpt lat="45.47359" lon="3.99549">
        <ele>1126</ele>
        <time>2022-05-17T14:57:13Z</time>
      </trkpt>
      <trkpt lat="45.4726" lon="3.99683">
        <ele>1128</ele>
        <time>2022-05-17T14:59:02Z</time>
      </trkpt>
      <trkpt lat="45.47166" lon="3.99703">
        <ele>1127</ele>
        <time>2022-05-17T15:00:19Z</time>
      </trkpt>
      <trkpt lat="45.4704" lon="3.99725">
        <ele>1120</ele>
        <time>2022-05-17T15:02:00Z</time>
      </trkpt>
      <trkpt lat="45.46959" lon="3.99779">
        <ele>1118</ele>
        <time>2022-05-17T15:03:12Z</time>
      </trkpt>
      <trkpt lat="45.4684" lon="3.99764">
        <ele>1119</ele>
        <time>2022-05-17T15:04:47Z</time>
      </trkpt>
      <trkpt lat="45.46734" lon="3.99743">
        <ele>1125</ele>
        <time>2022-05-17T15:06:13Z</time>
      </trkpt>
      <trkpt lat="45.4666" lon="3.99786">
        <ele>1133</ele>
        <time>2022-05-17T15:07:17Z</time>
      </trkpt>
      <trkpt lat="45.46388" lon="3.99719">
        <ele>1127</ele>
        <time>2022-05-17T15:10:58Z</time>
      </trkpt>
      <trkpt lat="45.46221" lon="3.99708">
        <ele>1131</ele>
        <time>2022-05-17T15:13:12Z</time>
      </trkpt>
      <trkpt lat="45.46099" lon="3.9977">
        <ele>1131</ele>
        <time>2022-05-17T15:14:56Z</time>
      </trkpt>
      <trkpt lat="45.46046" lon="3.9968">
        <ele>1131</ele>
        <time>2022-05-17T15:16:02Z</time>
      </trkpt>
    </trkseg>
  </trk>
</gpx>